Time,TemperatureF,DewpointF,PressureIn,WindDirection,WindDirectionDegrees,WindSpeedMPH,WindSpeedGustMPH,Humidity,HourlyPrecipIn,Conditions,Clouds,dailyrainin,SoftwareType,DateUTC
2013-07-12 00:02:00,63.0,-99.9,-100.00,North,-999,-999.0,-999.0,-999,-99.99,,,-99.99,,2013-07-12 06:02:00,
2013-07-12 00:11:00,63.0,-99.9,-100.00,North,-999,-999.0,-999.0,-999,-99.99,,,-99.99,,2013-07-12 06:11:00,
2013-07-12 00:22:00,63.0,-99.9,-100.00,North,-999,-999.0,-999.0,-999,-99.99,,,-99.99,,2013-07-12 06:22:00,
2013-07-12 00:30:00,59.0,-99.9,-100.00,North,-999,-999.0,-999.0,-999,0.01,,,0.00,,2013-07-12 06:30:00,
2013-07-12 00:52:00,59.0,-99.9,-100.00,North,-999,-999.0,-999.0,-999,0.01,,,0.00,,2013-07-12 06:52:00,
2013-07-12 01:02:00,59.0,-99.9,-100.00,North,-999,-999.0,-999.0,-999,0.01,,,0.00,,2013-07-12 07:02:00,
2013-07-12 01:12:00,59.0,-99.9,-100.00,North,-999,-999.0,-999.0,-999,0.01,,,0.00,,2013-07-12 07:12:00,
2013-07-12 01:22:00,59.0,-99.9,-100.00,North,-999,-999.0,-999.0,-999,0.01,,,0.00,,2013-07-12 07:22:00,
2013-07-12 01:30:00,57.0,-99.9,-100.00,North,-999,-999.0,-999.0,-999,0.00,,,0.00,,2013-07-12 07:30:00,
2013-07-12 02:02:00,57.0,-99.9,-100.00,North,-999,-999.0,-999.0,-999,0.00,,,0.00,,2013-07-12 08:02:00,
2013-07-12 02:11:00,57.0,-99.9,-100.00,North,-999,-999.0,-999.0,-999,0.00,,,0.00,,2013-07-12 08:11:00,
2013-07-12 02:22:00,57.0,-99.9,-100.00,North,-999,-999.0,-999.0,-999,0.00,,,0.00,,2013-07-12 08:22:00,
2013-07-12 04:30:00,53.0,-99.9,-100.00,North,-999,-999.0,-999.0,-999,-99.99,,,-99.99,,2013-07-12 10:30:00,
2013-07-12 05:12:00,53.0,-99.9,-100.00,North,-999,-999.0,-999.0,-999,-99.99,,,-99.99,,2013-07-12 11:12:00,
2013-07-12 05:22:00,53.0,-99.9,-100.00,North,-999,-999.0,-999.0,-999,-99.99,,,-99.99,,2013-07-12 11:22:00,
2013-07-12 07:30:00,55.0,-99.9,-100.00,North,-999,-999.0,-999.0,-999,-99.99,,,0.00,,2013-07-12 13:30:00,
2013-07-12 08:30:00,60.0,-99.9,-100.00,North,-999,-999.0,-999.0,-999,0.00,,,0.00,,2013-07-12 14:30:00,
2013-07-12 09:12:00,60.0,-99.9,-100.00,North,-999,-999.0,-999.0,-999,0.00,,,0.00,,2013-07-12 15:12:00,
2013-07-12 09:22:00,60.0,-99.9,-100.00,North,-999,-999.0,-999.0,-999,0.00,,,0.00,,2013-07-12 15:22:00,
2013-07-12 09:30:00,64.0,-99.9,-100.00,North,-999,-999.0,-999.0,-999,-99.99,,,-99.99,,2013-07-12 15:30:00,
2013-07-12 10:02:00,64.0,-99.9,-100.00,North,-999,-999.0,-999.0,-999,-99.99,,,-99.99,,2013-07-12 16:02:00,
2013-07-12 10:11:00,64.0,-99.9,-100.00,North,-999,-999.0,-999.0,-999,-99.99,,,-99.99,,2013-07-12 16:11:00,
2013-07-12 10:22:00,64.0,-99.9,-100.00,North,-999,-999.0,-999.0,-999,-99.99,,,-99.99,,2013-07-12 16:22:00,
2013-07-12 10:30:00,69.0,-99.9,-100.00,North,-999,-999.0,-999.0,-999,0.02,,,0.00,,2013-07-12 16:30:00,
2013-07-12 11:08:00,69.0,-99.9,-100.00,North,-999,-999.0,-999.0,-999,0.02,,,0.00,,2013-07-12 17:08:00,
2013-07-12 11:15:00,69.0,-99.9,-100.00,North,-999,-999.0,-999.0,-999,0.02,,,0.00,,2013-07-12 17:15:00,
2013-07-12 11:24:00,69.0,-99.9,-100.00,North,-999,-999.0,-999.0,-999,0.02,,,0.00,,2013-07-12 17:24:00,
2013-07-12 11:30:00,72.0,-99.9,-100.00,North,-999,-999.0,-999.0,-999,0.01,,,0.01,,2013-07-12 17:30:00,
2013-07-12 11:57:00,72.0,-99.9,-100.00,North,-999,-999.0,-999.0,-999,0.01,,,0.01,,2013-07-12 17:57:00,
2013-07-12 12:16:00,72.0,-99.9,-100.00,North,-999,-999.0,-999.0,-999,0.01,,,0.01,,2013-07-12 18:16:00,
2013-07-12 12:29:00,72.0,-99.9,-100.00,North,-999,-999.0,-999.0,-999,0.01,,,0.01,,2013-07-12 18:29:00,
2013-07-12 12:30:00,77.0,-99.9,-100.00,North,-999,-999.0,-999.0,-999,0.00,,,0.01,,2013-07-12 18:30:00,
2013-07-12 13:06:00,77.0,-99.9,-100.00,North,-999,-999.0,-999.0,-999,0.00,,,0.01,,2013-07-12 19:06:00,
2013-07-12 13:25:00,77.0,-99.9,-100.00,North,-999,-999.0,-999.0,-999,0.00,,,0.01,,2013-07-12 19:25:00,
2013-07-12 13:30:00,75.0,-99.9,-100.00,North,-999,-999.0,-999.0,-999,0.00,,,0.00,,2013-07-12 19:30:00,
2013-07-12 14:05:00,75.0,-99.9,-100.00,North,-999,-999.0,-999.0,-999,0.00,,,0.00,,2013-07-12 20:05:00,
2013-07-12 14:15:00,75.0,-99.9,-100.00,North,-999,-999.0,-999.0,-999,0.00,,,0.00,,2013-07-12 20:15:00,
2013-07-12 14:24:00,75.0,-99.9,-100.00,North,-999,-999.0,-999.0,-999,0.00,,,0.00,,2013-07-12 20:24:00,
2013-07-12 14:30:00,77.0,-99.9,-100.00,North,-999,-999.0,-999.0,-999,0.00,,,0.00,,2013-07-12 20:30:00,
2013-07-12 15:05:00,77.0,-99.9,-100.00,North,-999,-999.0,-999.0,-999,0.00,,,0.00,,2013-07-12 21:05:00,
2013-07-12 15:18:00,77.0,-99.9,-100.00,North,-999,-999.0,-999.0,-999,0.00,,,0.00,,2013-07-12 21:18:00,
2013-07-12 15:27:00,77.0,-99.9,-100.00,North,-999,-999.0,-999.0,-999,0.00,,,0.00,,2013-07-12 21:27:00,
2013-07-12 15:30:00,79.0,-99.9,-100.00,North,-999,-999.0,-999.0,-999,-99.99,,,-99.99,,2013-07-12 21:30:00,
2013-07-12 16:05:00,79.0,-99.9,-100.00,North,-999,-999.0,-999.0,-999,-99.99,,,-99.99,,2013-07-12 22:05:00,
2013-07-12 16:17:00,79.0,-99.9,-100.00,North,-999,-999.0,-999.0,-999,-99.99,,,-99.99,,2013-07-12 22:17:00,
2013-07-12 16:25:00,79.0,-99.9,-100.00,North,-999,-999.0,-999.0,-999,-99.99,,,-99.99,,2013-07-12 22:25:00,
2013-07-12 16:30:00,76.0,-99.9,-100.00,North,-999,-999.0,-999.0,-999,0.00,,,-99.99,,2013-07-12 22:30:00,
2013-07-12 17:07:00,76.0,-99.9,-100.00,North,-999,-999.0,-999.0,-999,0.00,,,-99.99,,2013-07-12 23:07:00,
2013-07-12 17:14:00,76.0,-99.9,-100.00,North,-999,-999.0,-999.0,-999,0.00,,,-99.99,,2013-07-12 23:14:00,
2013-07-12 17:28:00,76.0,-99.9,-100.00,North,-999,-999.0,-999.0,-999,0.00,,,-99.99,,2013-07-12 23:28:00,
2013-07-12 17:30:00,75.0,-99.9,-100.00,North,-999,-999.0,-999.0,-999,0.01,,,0.00,,2013-07-12 23:30:00,
2013-07-12 18:01:00,75.0,-99.9,-100.00,North,-999,-999.0,-999.0,-999,0.01,,,0.00,,2013-07-13 00:01:00,
2013-07-12 18:10:00,75.0,-99.9,-100.00,North,-999,-999.0,-999.0,-999,0.01,,,0.00,,2013-07-13 00:10:00,
2013-07-12 18:19:00,75.0,-99.9,-100.00,North,-999,-999.0,-999.0,-999,0.01,,,0.00,,2013-07-13 00:19:00,
2013-07-12 18:27:00,75.0,-99.9,-100.00,North,-999,-999.0,-999.0,-999,0.01,,,0.00,,2013-07-13 00:27:00,
2013-07-12 18:30:00,76.0,-99.9,-100.00,North,-999,-999.0,-999.0,-999,0.00,,,0.00,,2013-07-13 00:30:00,
2013-07-12 19:06:00,76.0,-99.9,-100.00,North,-999,-999.0,-999.0,-999,0.00,,,0.00,,2013-07-13 01:06:00,
2013-07-12 19:15:00,76.0,-99.9,-100.00,North,-999,-999.0,-999.0,-999,0.00,,,0.00,,2013-07-13 01:15:00,
2013-07-12 19:26:00,76.0,-99.9,-100.00,North,-999,-999.0,-999.0,-999,0.00,,,0.00,,2013-07-13 01:26:00,
2013-07-12 19:58:00,74.0,-99.9,-100.00,North,-999,-999.0,-999.0,-999,-99.99,,,-99.99,,2013-07-13 01:58:00,
2013-07-12 20:10:00,74.0,-99.9,-100.00,North,-999,-999.0,-999.0,-999,-99.99,,,-99.99,,2013-07-13 02:10:00,
2013-07-12 20:16:00,74.0,-99.9,-100.00,North,-999,-999.0,-999.0,-999,-99.99,,,-99.99,,2013-07-13 02:16:00,
2013-07-12 20:26:00,74.0,-99.9,-100.00,North,-999,-999.0,-999.0,-999,-99.99,,,-99.99,,2013-07-13 02:26:00,
2013-07-12 20:30:00,70.0,-99.9,-100.00,North,-999,-999.0,-999.0,-999,-99.99,,,-99.99,,2013-07-13 02:30:00,
2013-07-12 20:59:00,70.0,-99.9,-100.00,North,-999,-999.0,-999.0,-999,-99.99,,,-99.99,,2013-07-13 02:59:00,
2013-07-12 21:29:00,70.0,-99.9,-100.00,North,-999,-999.0,-999.0,-999,-99.99,,,-99.99,,2013-07-13 03:29:00,
2013-07-12 21:30:00,67.0,-99.9,-100.00,North,-999,-999.0,-999.0,-999,0.02,,,0.01,,2013-07-13 03:30:00,
2013-07-12 22:02:00,67.0,-99.9,-100.00,North,-999,-999.0,-999.0,-999,0.02,,,0.01,,2013-07-13 04:02:00,
2013-07-12 22:12:00,67.0,-99.9,-100.00,North,-999,-999.0,-999.0,-999,0.02,,,0.01,,2013-07-13 04:12:00,
2013-07-12 22:22:00,67.0,-99.9,-100.00,North,-999,-999.0,-999.0,-999,0.02,,,0.01,,2013-07-13 04:22:00,
2013-07-12 22:30:00,64.0,-99.9,-100.00,North,-999,-999.0,-999.0,-999,-99.99,,,-99.99,,2013-07-13 04:30:00,
2013-07-12 23:02:00,64.0,-99.9,-100.00,North,-999,-999.0,-999.0,-999,-99.99,,,-99.99,,2013-07-13 05:02:00,
2013-07-12 23:11:00,64.0,-99.9,-100.00,North,-999,-999.0,-999.0,-999,-99.99,,,-99.99,,2013-07-13 05:11:00,
2013-07-12 23:22:00,64.0,-99.9,-100.00,North,-999,-999.0,-999.0,-999,-99.99,,,-99.99,,2013-07-13 05:22:00,
2013-07-12 23:30:00,66.0,-99.9,-100.00,North,-999,-999.0,-999.0,-999,0.01,,,0.01,,2013-07-13 05:30:00,
2013-07-12 23:52:00,66.0,-99.9,-100.00,North,-999,-999.0,-999.0,-999,0.01,,,0.01,,2013-07-13 05:52:00,